createdAt,value
2022-07-31T00:00:34.329Z,4
2022-07-31T00:10:34.862Z,4
2022-07-31T00:20:33.362Z,1
2022-07-31T00:30:32.970Z,1
2022-07-31T00:40:34.519Z,1
2022-07-31T00:50:35.152Z,2
2022-07-31T01:00:34.594Z,1
2022-07-31T01:10:34.515Z,3
2022-07-31T01:20:34.962Z,2
2022-07-31T01:30:34.756Z,2
2022-07-31T01:40:35.292Z,3
2022-07-31T01:50:42.764Z,3
2022-07-31T02:00:34.811Z,2
2022-07-31T02:10:34.114Z,3
2022-07-31T02:20:34.315Z,4
2022-07-31T02:30:38.942Z,5
2022-07-31T02:40:33.548Z,4
2022-07-31T02:53:03.737Z,3
2022-07-31T03:03:02.547Z,6
2022-07-31T03:13:01.680Z,4
2022-07-31T03:23:02.921Z,7
2022-07-31T03:33:03.092Z,8
2022-07-31T03:43:02.784Z,6
2022-07-31T03:53:02.839Z,3
2022-07-31T04:03:01.829Z,4
2022-07-31T04:13:01.780Z,3
2022-07-31T04:23:01.723Z,2
2022-07-31T04:33:01.580Z,3
2022-07-31T04:43:02.152Z,3
2022-07-31T04:53:01.927Z,3
2022-07-31T05:03:01.719Z,7
2022-07-31T05:13:01.428Z,6
2022-07-31T05:23:01.282Z,4
2022-07-31T05:33:01.895Z,2
2022-07-31T05:43:01.543Z,2
2022-07-31T05:53:02.646Z,1
2022-07-31T06:03:02.201Z,4
2022-07-31T06:13:01.990Z,3
2022-07-31T06:23:01.576Z,4
2022-07-31T06:33:01.303Z,8
2022-07-31T06:43:06.612Z,10
2022-07-31T06:53:01.581Z,10
2022-07-31T07:03:02.165Z,9
2022-07-31T07:13:01.809Z,7
2022-07-31T07:23:01.364Z,9
2022-07-31T07:33:01.977Z,8
2022-07-31T07:43:03.377Z,11
2022-07-31T07:53:02.066Z,9
2022-07-31T08:03:47.324Z,7
2022-07-31T08:13:02.196Z,8
2022-07-31T08:23:01.776Z,8
2022-07-31T08:33:01.436Z,7
2022-07-31T08:43:04.864Z,8
2022-07-31T08:53:01.336Z,5
2022-07-31T09:03:02.305Z,7
